Time;durP1;ratioP1;P1;durP2;ratioP2;P2;SDS_P1;SDS_P2;PMS_P1;PMS_P2;Temp;Humidity;BMP_temperature;BMP_pressure;BME280_temperature;BME280_humidity;BME280_pressure;Samples;Min_cycle;Max_cycle;Signal;HPM_P1;HPM_P2
2021/12/27 00:01:48;;;;;;;176.70;74.87;;;;;;;;;;773477;181;918986;-63
2021/12/27 00:04:14;;;;;;;169.83;80.50;;;;;;;;;;767834;182;919294;-64
2021/12/27 00:06:40;;;;;;;177.40;77.70;;;;;;;;;;766664;182;920075;-65
2021/12/27 00:09:06;;;;;;;155.27;75.43;;;;;;;;;;771865;182;919632;-65
2021/12/27 00:11:32;;;;;;;162.30;77.83;;;;;;;;;;765883;182;919432;-64
2021/12/27 00:13:58;;;;;;;171.47;83.33;;;;;;;;;;766781;182;919028;-64
2021/12/27 00:16:24;;;;;;;168.50;72.27;;;;;;;;;;767812;179;919257;-64
2021/12/27 00:18:50;;;;;;;184.80;78.10;;;;;;;;;;774107;182;919485;-62
2021/12/27 00:21:16;;;;;;;168.43;79.77;;;;;;;;;;764751;182;918929;-64
2021/12/27 00:23:42;;;;;;;166.10;80.27;;;;;;;;;;766084;182;918414;-64
2021/12/27 00:26:08;;;;;;;174.50;82.07;;;;;;;;;;772214;182;917194;-63
2021/12/27 00:28:34;;;;;;;159.17;75.27;;;;;;;;;;767798;182;936475;-64
2021/12/27 00:31:00;;;;;;;166.67;83.50;;;;;;;;;;765803;182;919177;-64
2021/12/27 00:33:26;;;;;;;185.80;85.43;;;;;;;;;;772696;182;892605;-63
2021/12/27 00:35:52;;;;;;;169.10;76.87;;;;;;;;;;760721;183;920199;-64
2021/12/27 00:38:17;;;;;;;163.33;77.00;;;;;;;;;;765812;182;918842;-63
2021/12/27 00:40:43;;;;;;;161.10;77.00;;;;;;;;;;765145;182;942793;-64
2021/12/27 00:43:09;;;;;;;160.90;79.50;;;;;;;;;;772207;182;918091;-64
2021/12/27 00:45:36;;;;;;;173.77;79.37;;;;;;;;;;765631;180;919377;-62
2021/12/27 00:48:03;;;;;;;163.97;75.70;;;;;;;;;;768301;182;945721;-64
2021/12/27 00:50:29;;;;;;;165.77;76.93;;;;;;;;;;773789;182;918893;-63
2021/12/27 00:52:55;;;;;;;166.30;71.03;;;;;;;;;;763671;183;919117;-64
2021/12/27 00:55:21;;;;;;;160.13;73.00;;;;;;;;;;760082;182;917987;-62
2021/12/27 00:57:47;;;;;;;165.17;79.33;;;;;;;;;;765155;183;919092;-63
2021/12/27 01:00:13;;;;;;;164.10;74.23;;;;;;;;;;761199;183;920982;-62
2021/12/27 01:02:39;;;;;;;158.90;66.80;;;;;;;;;;760028;183;1021852;-63
2021/12/27 01:05:07;;;;;;;155.63;71.17;;;;;;;;;;767961;183;635817;-64
2021/12/27 01:07:33;;;;;;;158.10;71.67;;;;;;;;;;773045;183;624707;-64
2021/12/27 01:10:16;;;;;;;151.30;69.07;;;;;;;;;;769136;183;918984;-64
2021/12/27 01:12:34;;;;;;;150.40;76.73;;;;;;;;;;766364;180;920547;-63
2021/12/27 01:17:25;;;;;;;153.17;75.00;;;;;;;;;;770364;182;914789;-64
2021/12/27 01:19:51;;;;;;;177.80;83.07;;;;;;;;;;766844;182;917436;-62
2021/12/27 01:22:17;;;;;;;163.73;77.93;;;;;;;;;;762425;179;919356;-62
2021/12/27 01:24:43;;;;;;;181.43;85.15;;;;;;;;;;773190;183;919066;-64
2021/12/27 01:27:08;;;;;;;164.67;74.60;;;;;;;;;;770867;182;919070;-63
2021/12/27 01:29:34;;;;;;;179.67;79.93;;;;;;;;;;769076;182;919875;-64
2021/12/27 01:32:02;;;;;;;196.40;85.45;;;;;;;;;;772231;183;918902;-64
2021/12/27 01:34:27;;;;;;;176.67;83.60;;;;;;;;;;763405;183;920179;-64
2021/12/27 01:36:53;;;;;;;178.17;82.27;;;;;;;;;;764839;183;919391;-64
2021/12/27 01:39:18;;;;;;;179.90;83.57;;;;;;;;;;766604;182;918768;-63
2021/12/27 01:41:44;;;;;;;171.53;79.80;;;;;;;;;;774708;182;919191;-63
2021/12/27 01:44:11;;;;;;;162.13;75.47;;;;;;;;;;764084;182;919065;-62
2021/12/27 01:46:36;;;;;;;163.05;77.45;;;;;;;;;;766299;183;918799;-63
2021/12/27 01:49:02;;;;;;;186.17;84.50;;;;;;;;;;769638;182;919375;-64
2021/12/27 01:51:28;;;;;;;161.60;81.43;;;;;;;;;;766149;183;918650;-64
2021/12/27 01:53:53;;;;;;;186.75;81.37;;;;;;;;;;766270;183;919075;-63
2021/12/27 01:56:20;;;;;;;172.97;82.83;;;;;;;;;;772698;182;1103397;-64
2021/12/27 01:58:45;;;;;;;163.27;78.53;;;;;;;;;;765730;182;918845;-62
2021/12/27 02:01:11;;;;;;;167.27;73.47;;;;;;;;;;766381;183;919504;-62
2021/12/27 02:03:38;;;;;;;173.53;79.13;;;;;;;;;;765932;182;919669;-63
2021/12/27 02:06:05;;;;;;;177.60;83.40;;;;;;;;;;747365;187;920171;-64
2021/12/27 02:08:29;;;;;;;167.77;80.67;;;;;;;;;;761838;183;916459;-64
2021/12/27 02:10:55;;;;;;;180.50;86.93;;;;;;;;;;766525;182;915139;-64
2021/12/27 02:13:23;;;;;;;181.47;85.50;;;;;;;;;;773843;182;914878;-64
2021/12/27 02:15:47;;;;;;;192.17;83.27;;;;;;;;;;768605;183;918736;-63
2021/12/27 02:18:13;;;;;;;176.87;84.30;;;;;;;;;;767202;182;918820;-64
2021/12/27 02:20:42;;;;;;;187.40;86.60;;;;;;;;;;771473;182;919157;-64
2021/12/27 02:23:15;;;;;;;199.20;85.37;;;;;;;;;;768411;182;920302;-64
2021/12/27 02:25:36;;;;;;;183.90;86.80;;;;;;;;;;768244;182;920966;-64
2021/12/27 02:28:03;;;;;;;213.13;91.67;;;;;;;;;;769870;182;1020708;-63
2021/12/27 02:30:30;;;;;;;204.90;99.07;;;;;;;;;;770113;182;916588;-63
2021/12/27 02:32:56;;;;;;;189.43;93.73;;;;;;;;;;771722;182;915763;-63
2021/12/27 02:35:24;;;;;;;174.17;85.70;;;;;;;;;;768330;182;918686;-62
2021/12/27 02:37:50;;;;;;;175.32;86.10;;;;;;;;;;767583;183;1021614;-62
2021/12/27 02:40:16;;;;;;;172.67;82.50;;;;;;;;;;765452;183;918295;-62
2021/12/27 02:42:48;;;;;;;167.47;81.27;;;;;;;;;;765026;183;918729;-62
2021/12/27 02:45:13;;;;;;;170.25;86.37;;;;;;;;;;767310;183;919157;-64
2021/12/27 02:47:39;;;;;;;166.83;80.07;;;;;;;;;;771988;183;919471;-64
2021/12/27 02:50:06;;;;;;;192.20;81.70;;;;;;;;;;766572;179;919070;-64
2021/12/27 02:52:31;;;;;;;167.40;77.43;;;;;;;;;;768414;182;925999;-64
2021/12/27 02:54:57;;;;;;;176.77;81.37;;;;;;;;;;772359;182;919319;-64
2021/12/27 02:57:23;;;;;;;169.90;80.87;;;;;;;;;;768723;182;919283;-64
2021/12/27 02:59:49;;;;;;;190.43;81.17;;;;;;;;;;766461;182;919784;-63
2021/12/27 03:02:15;;;;;;;177.53;78.77;;;;;;;;;;767408;183;1020528;-63
2021/12/27 03:04:45;;;;;;;179.20;76.93;;;;;;;;;;773570;183;918109;-64
2021/12/27 03:07:08;;;;;;;157.97;72.07;;;;;;;;;;759850;183;919488;-63
2021/12/27 03:09:34;;;;;;;190.25;79.53;;;;;;;;;;764673;182;920670;-63
2021/12/27 03:12:00;;;;;;;173.50;78.60;;;;;;;;;;765249;182;918058;-64
2021/12/27 03:14:25;;;;;;;171.33;78.23;;;;;;;;;;763852;182;918555;-63
2021/12/27 03:16:51;;;;;;;199.97;85.10;;;;;;;;;;757960;182;918625;-63
2021/12/27 03:19:17;;;;;;;183.57;87.27;;;;;;;;;;764300;183;919053;-65
2021/12/27 03:21:43;;;;;;;179.77;79.33;;;;;;;;;;770017;182;1021985;-64
2021/12/27 03:24:09;;;;;;;192.10;82.57;;;;;;;;;;770218;182;628962;-64
2021/12/27 03:26:35;;;;;;;186.60;81.47;;;;;;;;;;772459;183;631002;-64
2021/12/27 03:29:01;;;;;;;172.53;81.03;;;;;;;;;;770091;182;918417;-64
2021/12/27 03:31:27;;;;;;;170.55;78.72;;;;;;;;;;766142;183;918880;-62
2021/12/27 03:33:55;;;;;;;169.00;77.67;;;;;;;;;;763272;182;919227;-63
2021/12/27 03:36:23;;;;;;;171.63;84.10;;;;;;;;;;772837;181;919000;-63
2021/12/27 03:38:45;;;;;;;187.32;85.75;;;;;;;;;;770137;182;917553;-63
2021/12/27 03:41:12;;;;;;;160.17;75.17;;;;;;;;;;760129;182;918649;-63
2021/12/27 03:43:38;;;;;;;171.70;80.67;;;;;;;;;;758333;182;918840;-62
2021/12/27 03:46:04;;;;;;;180.13;84.00;;;;;;;;;;762567;183;919190;-64
2021/12/27 03:48:30;;;;;;;188.43;83.67;;;;;;;;;;762536;183;919700;-62
2021/12/27 03:50:56;;;;;;;179.48;87.70;;;;;;;;;;769696;182;919452;-62
2021/12/27 03:53:22;;;;;;;182.83;82.40;;;;;;;;;;772560;183;918925;-63
2021/12/27 03:55:47;;;;;;;184.60;85.30;;;;;;;;;;760926;183;918633;-64
2021/12/27 04:00:50;;;;;;;185.50;89.90;;;;;;;;;;770535;182;919008;-63
2021/12/27 04:03:13;;;;;;;204.90;90.80;;;;;;;;;;768465;182;920963;-63
2021/12/27 04:05:39;;;;;;;191.70;92.27;;;;;;;;;;768471;182;919067;-64
2021/12/27 04:08:09;;;;;;;192.93;90.90;;;;;;;;;;763047;182;918546;-63
2021/12/27 04:10:31;;;;;;;207.07;93.90;;;;;;;;;;770437;182;917593;-64
2021/12/27 04:12:56;;;;;;;200.20;92.80;;;;;;;;;;766372;182;918597;-64
2021/12/27 04:15:22;;;;;;;173.93;87.17;;;;;;;;;;766158;183;1021828;-64
2021/12/27 04:17:49;;;;;;;195.73;88.33;;;;;;;;;;771300;183;919450;-64
2021/12/27 04:20:16;;;;;;;187.33;85.33;;;;;;;;;;766014;182;918461;-63
2021/12/27 04:22:42;;;;;;;191.83;90.40;;;;;;;;;;765689;182;1021532;-62
2021/12/27 04:25:08;;;;;;;190.63;92.33;;;;;;;;;;766129;180;919458;-62
2021/12/27 04:27:35;;;;;;;201.57;94.70;;;;;;;;;;763463;183;918335;-64
2021/12/27 04:30:02;;;;;;;195.13;89.87;;;;;;;;;;762332;182;918982;-63
2021/12/27 04:32:29;;;;;;;193.80;88.77;;;;;;;;;;766692;182;919090;-63
2021/12/27 04:34:54;;;;;;;183.90;85.33;;;;;;;;;;772632;182;1022140;-63
2021/12/27 04:37:20;;;;;;;185.10;92.83;;;;;;;;;;764366;182;919102;-64
2021/12/27 04:39:46;;;;;;;208.73;94.57;;;;;;;;;;765949;182;919719;-66
2021/12/27 04:42:12;;;;;;;242.17;122.97;;;;;;;;;;771221;181;918312;-63
2021/12/27 04:44:38;;;;;;;202.47;90.93;;;;;;;;;;764574;182;919031;-62
2021/12/27 04:47:04;;;;;;;220.03;90.87;;;;;;;;;;767501;180;917448;-64
2021/12/27 04:49:30;;;;;;;199.23;95.57;;;;;;;;;;769989;182;919408;-61
2021/12/27 04:51:56;;;;;;;205.23;96.10;;;;;;;;;;773337;182;915737;-64
2021/12/27 04:54:22;;;;;;;190.67;93.93;;;;;;;;;;765317;182;1021599;-63
2021/12/27 04:56:48;;;;;;;217.95;100.12;;;;;;;;;;766572;182;919297;-64
2021/12/27 04:59:14;;;;;;;197.53;96.30;;;;;;;;;;772115;182;919069;-64
2021/12/27 05:01:40;;;;;;;207.23;93.90;;;;;;;;;;766711;182;918796;-63
2021/12/27 05:04:06;;;;;;;211.03;89.47;;;;;;;;;;769143;182;919722;-63
2021/12/27 05:06:32;;;;;;;192.90;89.33;;;;;;;;;;773878;182;914762;-63
2021/12/27 05:08:58;;;;;;;170.80;80.93;;;;;;;;;;768026;182;918834;-64
2021/12/27 05:11:24;;;;;;;193.20;88.00;;;;;;;;;;769080;182;919930;-64
2021/12/27 05:13:50;;;;;;;213.30;90.53;;;;;;;;;;766095;183;917402;-62
2021/12/27 05:16:16;;;;;;;228.83;98.63;;;;;;;;;;772859;180;946537;-62
2021/12/27 05:18:42;;;;;;;209.25;96.50;;;;;;;;;;765776;182;919000;-63
2021/12/27 05:21:08;;;;;;;201.67;89.00;;;;;;;;;;766515;182;917827;-63
2021/12/27 05:23:34;;;;;;;211.50;98.50;;;;;;;;;;770414;183;931860;-63
2021/12/27 05:26:00;;;;;;;177.98;88.47;;;;;;;;;;766556;182;919088;-63
2021/12/27 05:28:26;;;;;;;218.93;98.50;;;;;;;;;;765644;182;919116;-65
2021/12/27 05:30:52;;;;;;;232.27;121.27;;;;;;;;;;769926;182;918536;-64
2021/12/27 05:33:18;;;;;;;213.63;114.40;;;;;;;;;;766574;182;1330531;-65
2021/12/27 05:35:44;;;;;;;217.03;105.57;;;;;;;;;;769500;182;639656;-65
2021/12/27 05:38:10;;;;;;;203.40;95.80;;;;;;;;;;761465;182;920274;-65
2021/12/27 05:40:36;;;;;;;222.88;99.87;;;;;;;;;;774249;180;1023671;-64
2021/12/27 05:43:02;;;;;;;210.30;104.27;;;;;;;;;;764969;182;919120;-65
2021/12/27 05:45:28;;;;;;;210.83;102.40;;;;;;;;;;769106;179;918476;-64
2021/12/27 05:47:55;;;;;;;188.17;94.90;;;;;;;;;;773051;183;917912;-65
2021/12/27 05:50:20;;;;;;;191.40;90.60;;;;;;;;;;766771;182;928954;-64
2021/12/27 05:52:46;;;;;;;199.47;97.10;;;;;;;;;;764517;182;921380;-65
2021/12/27 05:55:12;;;;;;;205.73;95.03;;;;;;;;;;772217;179;918700;-65
2021/12/27 05:57:38;;;;;;;197.90;92.77;;;;;;;;;;765845;182;918900;-65
2021/12/27 06:00:04;;;;;;;218.17;102.40;;;;;;;;;;769414;181;920388;-65
2021/12/27 06:02:30;;;;;;;204.90;96.40;;;;;;;;;;767421;182;920420;-66
2021/12/27 06:04:56;;;;;;;202.10;97.07;;;;;;;;;;767559;182;916632;-65
2021/12/27 06:07:22;;;;;;;196.87;96.63;;;;;;;;;;767815;182;918912;-64
2021/12/27 06:09:48;;;;;;;209.48;95.47;;;;;;;;;;765912;182;912552;-66
2021/12/27 06:12:14;;;;;;;215.13;95.57;;;;;;;;;;774326;182;911123;-64
2021/12/27 06:14:40;;;;;;;209.10;93.17;;;;;;;;;;766723;182;918273;-65
2021/12/27 06:17:06;;;;;;;230.93;101.90;;;;;;;;;;765487;181;920640;-66
2021/12/27 06:19:32;;;;;;;218.60;108.73;;;;;;;;;;772068;182;918795;-64
2021/12/27 06:21:58;;;;;;;224.77;98.57;;;;;;;;;;766681;182;919431;-65
2021/12/27 06:24:24;;;;;;;210.47;102.27;;;;;;;;;;768766;183;918341;-66
2021/12/27 06:26:50;;;;;;;208.70;107.90;;;;;;;;;;770115;183;919137;-64
2021/12/27 06:29:16;;;;;;;208.43;102.40;;;;;;;;;;768422;180;919330;-65
2021/12/27 06:31:42;;;;;;;235.43;107.67;;;;;;;;;;764483;182;918803;-64
2021/12/27 06:34:08;;;;;;;234.27;111.73;;;;;;;;;;767780;182;918810;-63
2021/12/27 06:36:34;;;;;;;226.65;110.90;;;;;;;;;;770687;182;919071;-65
2021/12/27 06:39:00;;;;;;;255.63;112.77;;;;;;;;;;767641;182;919735;-66
2021/12/27 06:41:26;;;;;;;337.00;140.73;;;;;;;;;;765716;183;918518;-65
2021/12/27 06:43:52;;;;;;;285.73;137.30;;;;;;;;;;771090;182;919387;-66
2021/12/27 06:46:18;;;;;;;291.00;139.33;;;;;;;;;;766617;182;1020245;-66
2021/12/27 06:48:44;;;;;;;252.30;125.47;;;;;;;;;;768648;182;918307;-66
2021/12/27 06:51:10;;;;;;;301.73;128.93;;;;;;;;;;770821;182;919868;-64
2021/12/27 06:53:36;;;;;;;252.03;119.23;;;;;;;;;;760912;184;919069;-65
2021/12/27 06:56:04;;;;;;;237.27;115.43;;;;;;;;;;761831;182;919191;-66
2021/12/27 06:58:28;;;;;;;254.70;122.20;;;;;;;;;;765155;182;919244;-65
2021/12/27 07:00:54;;;;;;;235.07;119.77;;;;;;;;;;772507;183;918915;-65
2021/12/27 07:03:20;;;;;;;248.40;112.90;;;;;;;;;;766558;182;917961;-66
2021/12/27 07:05:48;;;;;;;236.27;118.10;;;;;;;;;;767691;182;917289;-65
2021/12/27 07:08:12;;;;;;;234.87;118.43;;;;;;;;;;772161;182;916166;-65
2021/12/27 07:10:38;;;;;;;225.30;114.33;;;;;;;;;;767914;180;917565;-64
2021/12/27 07:13:06;;;;;;;224.30;109.83;;;;;;;;;;765707;182;922132;-64
2021/12/27 07:15:31;;;;;;;210.35;104.57;;;;;;;;;;768601;182;918734;-65
2021/12/27 07:17:58;;;;;;;216.53;107.93;;;;;;;;;;767504;183;917372;-65
2021/12/27 07:20:25;;;;;;;210.97;100.00;;;;;;;;;;765985;180;919678;-65
2021/12/27 07:22:52;;;;;;;219.00;103.63;;;;;;;;;;767313;182;924875;-64
2021/12/27 07:25:18;;;;;;;223.43;103.25;;;;;;;;;;771821;182;927692;-66
2021/12/27 07:27:44;;;;;;;217.80;106.63;;;;;;;;;;768252;182;919837;-66
2021/12/27 07:30:10;;;;;;;217.30;102.20;;;;;;;;;;767389;182;918274;-66
2021/12/27 07:32:36;;;;;;;229.17;106.87;;;;;;;;;;770866;182;918732;-65
2021/12/27 07:35:03;;;;;;;239.33;120.70;;;;;;;;;;771043;182;629527;-64
2021/12/27 07:37:29;;;;;;;243.23;116.77;;;;;;;;;;769438;182;918762;-65
2021/12/27 07:39:55;;;;;;;229.50;112.97;;;;;;;;;;765601;182;919058;-65
2021/12/27 07:42:21;;;;;;;233.87;108.00;;;;;;;;;;774150;182;615841;-65
2021/12/27 07:44:47;;;;;;;268.03;120.40;;;;;;;;;;764392;182;919523;-65
2021/12/27 07:47:13;;;;;;;249.73;112.60;;;;;;;;;;765157;180;919115;-65
2021/12/27 07:49:39;;;;;;;272.30;123.33;;;;;;;;;;771144;182;919189;-63
2021/12/27 07:52:05;;;;;;;273.70;125.33;;;;;;;;;;765283;182;927839;-65
2021/12/27 07:54:30;;;;;;;280.57;129.50;;;;;;;;;;765967;182;924137;-65
2021/12/27 07:56:56;;;;;;;257.67;124.73;;;;;;;;;;771494;182;919088;-65
2021/12/27 07:59:22;;;;;;;240.43;115.22;;;;;;;;;;764836;182;918244;-65
2021/12/27 08:01:48;;;;;;;249.37;123.63;;;;;;;;;;765686;183;917292;-65
2021/12/27 08:04:14;;;;;;;218.63;89.00;;;;;;;;;;770171;182;918394;-64
2021/12/27 08:06:40;;;;;;;258.53;129.17;;;;;;;;;;771950;183;637533;-65
2021/12/27 08:09:06;;;;;;;239.10;117.10;;;;;;;;;;764310;182;1019591;-64
2021/12/27 08:11:32;;;;;;;308.53;142.50;;;;;;;;;;766177;182;919391;-65
2021/12/27 08:13:58;;;;;;;238.63;103.27;;;;;;;;;;771737;182;917608;-65
2021/12/27 08:16:24;;;;;;;264.63;121.10;;;;;;;;;;770000;181;633860;-65
2021/12/27 08:18:49;;;;;;;262.90;124.40;;;;;;;;;;767729;182;917898;-64
2021/12/27 08:21:16;;;;;;;253.87;122.20;;;;;;;;;;771724;182;918716;-65
2021/12/27 08:23:41;;;;;;;247.73;121.17;;;;;;;;;;768912;182;918897;-64
2021/12/27 08:26:07;;;;;;;283.07;137.07;;;;;;;;;;768786;180;918737;-65
2021/12/27 08:28:33;;;;;;;234.07;120.87;;;;;;;;;;767268;182;919429;-64
2021/12/27 08:30:59;;;;;;;250.43;131.07;;;;;;;;;;764763;183;919425;-65
2021/12/27 08:33:25;;;;;;;255.97;124.90;;;;;;;;;;762589;183;919697;-64
2021/12/27 08:35:51;;;;;;;241.77;119.87;;;;;;;;;;763763;182;919053;-65
2021/12/27 08:38:18;;;;;;;243.47;106.00;;;;;;;;;;770215;182;919149;-64
2021/12/27 08:40:42;;;;;;;239.17;116.90;;;;;;;;;;768546;182;919830;-65
2021/12/27 08:43:08;;;;;;;239.80;114.67;;;;;;;;;;766981;182;918636;-63
2021/12/27 08:45:34;;;;;;;247.80;117.50;;;;;;;;;;771353;182;919967;-64
2021/12/27 08:48:00;;;;;;;233.63;111.53;;;;;;;;;;767834;182;919195;-65
2021/12/27 08:50:26;;;;;;;244.13;113.70;;;;;;;;;;765234;183;918493;-65
2021/12/27 08:52:52;;;;;;;254.80;119.30;;;;;;;;;;772589;183;918660;-65
2021/12/27 08:55:17;;;;;;;244.10;112.20;;;;;;;;;;766207;182;921297;-65
2021/12/27 08:57:43;;;;;;;254.37;119.47;;;;;;;;;;761109;182;948846;-63
2021/12/27 09:00:09;;;;;;;242.20;112.83;;;;;;;;;;770143;183;917765;-65
2021/12/27 09:02:35;;;;;;;226.73;111.23;;;;;;;;;;773487;182;918174;-65
2021/12/27 09:05:01;;;;;;;242.70;110.67;;;;;;;;;;764025;182;919698;-65
2021/12/27 09:07:27;;;;;;;230.23;111.43;;;;;;;;;;769721;182;918590;-64
2021/12/27 09:09:53;;;;;;;213.47;101.27;;;;;;;;;;773234;182;917318;-64
2021/12/27 09:12:19;;;;;;;220.87;106.23;;;;;;;;;;766420;183;918491;-63
2021/12/27 09:14:45;;;;;;;240.70;114.93;;;;;;;;;;770655;183;919933;-64
2021/12/27 09:17:10;;;;;;;235.00;116.10;;;;;;;;;;771985;183;918124;-64
2021/12/27 09:19:36;;;;;;;211.03;97.27;;;;;;;;;;767319;183;919410;-63
2021/12/27 09:22:03;;;;;;;218.03;104.10;;;;;;;;;;764298;182;945081;-64
2021/12/27 09:24:31;;;;;;;232.70;103.67;;;;;;;;;;765980;182;920624;-63
2021/12/27 09:26:55;;;;;;;209.37;103.63;;;;;;;;;;770548;180;919090;-63
2021/12/27 09:29:21;;;;;;;219.47;103.73;;;;;;;;;;767840;182;919327;-63
2021/12/27 09:31:47;;;;;;;220.47;111.93;;;;;;;;;;765514;183;918510;-64
2021/12/27 09:34:13;;;;;;;231.43;106.70;;;;;;;;;;770386;182;912580;-63
2021/12/27 09:36:38;;;;;;;217.07;113.63;;;;;;;;;;770701;182;915678;-63
2021/12/27 09:39:05;;;;;;;253.83;113.10;;;;;;;;;;767561;182;920140;-63
2021/12/27 09:41:31;;;;;;;231.17;108.43;;;;;;;;;;772755;182;920309;-63
2021/12/27 09:43:57;;;;;;;258.57;119.33;;;;;;;;;;764344;182;919630;-64
2021/12/27 09:46:22;;;;;;;249.60;119.33;;;;;;;;;;764155;182;918659;-63
2021/12/27 09:48:50;;;;;;;237.27;112.83;;;;;;;;;;765987;182;918776;-62
2021/12/27 09:51:16;;;;;;;277.43;136.13;;;;;;;;;;771432;182;917597;-64
2021/12/27 09:53:42;;;;;;;255.17;127.57;;;;;;;;;;765379;183;1021362;-62
2021/12/27 09:56:08;;;;;;;237.32;118.87;;;;;;;;;;759524;182;919483;-64
2021/12/27 09:58:34;;;;;;;215.40;99.80;;;;;;;;;;774068;182;916479;-63
2021/12/27 10:01:03;;;;;;;224.57;107.57;;;;;;;;;;767452;179;916917;-63
2021/12/27 10:03:25;;;;;;;211.97;108.37;;;;;;;;;;766109;182;914740;-63
2021/12/27 10:05:51;;;;;;;239.33;120.40;;;;;;;;;;771870;181;914611;-64
2021/12/27 10:08:18;;;;;;;239.53;116.53;;;;;;;;;;767832;183;918726;-63
2021/12/27 10:10:43;;;;;;;236.07;112.07;;;;;;;;;;765422;182;936154;-64
2021/12/27 10:13:09;;;;;;;256.87;118.83;;;;;;;;;;765880;182;919603;-62
2021/12/27 10:15:35;;;;;;;262.43;123.67;;;;;;;;;;773031;182;921131;-64
2021/12/27 10:18:07;;;;;;;261.37;118.82;;;;;;;;;;768430;182;919485;-63
2021/12/27 10:20:33;;;;;;;221.07;107.50;;;;;;;;;;766240;183;919174;-63
2021/12/27 10:22:59;;;;;;;266.08;123.60;;;;;;;;;;771450;183;917992;-63
2021/12/27 10:25:24;;;;;;;242.30;123.17;;;;;;;;;;762533;183;1020474;-63
2021/12/27 10:27:52;;;;;;;222.67;107.63;;;;;;;;;;762873;183;920416;-62
2021/12/27 10:30:17;;;;;;;251.63;116.00;;;;;;;;;;766747;182;918517;-62
2021/12/27 10:32:43;;;;;;;226.17;111.40;;;;;;;;;;765863;182;918200;-62
2021/12/27 10:35:11;;;;;;;216.27;110.17;;;;;;;;;;764645;183;918795;-63
2021/12/27 10:37:38;;;;;;;222.43;106.53;;;;;;;;;;764051;182;919873;-63
2021/12/27 10:40:05;;;;;;;211.17;105.53;;;;;;;;;;771972;182;918683;-61
2021/12/27 10:42:31;;;;;;;214.47;100.70;;;;;;;;;;768126;182;919321;-63
2021/12/27 10:44:58;;;;;;;200.85;100.62;;;;;;;;;;765096;180;1020871;-63
2021/12/27 10:47:24;;;;;;;232.10;107.60;;;;;;;;;;765401;182;920576;-63
2021/12/27 10:49:50;;;;;;;229.23;109.70;;;;;;;;;;775596;180;918778;-63
2021/12/27 10:52:16;;;;;;;242.50;111.70;;;;;;;;;;769598;182;637222;-62
2021/12/27 10:54:41;;;;;;;227.00;104.10;;;;;;;;;;771341;182;639968;-62
2021/12/27 10:57:07;;;;;;;220.43;108.50;;;;;;;;;;773052;182;616735;-62
2021/12/27 10:59:33;;;;;;;236.57;113.72;;;;;;;;;;769975;183;918358;-63
2021/12/27 11:02:05;;;;;;;233.87;108.03;;;;;;;;;;762463;182;918759;-61
2021/12/27 11:04:31;;;;;;;239.47;115.00;;;;;;;;;;769511;182;918788;-63
2021/12/27 11:06:58;;;;;;;205.37;96.20;;;;;;;;;;770411;179;914914;-62
2021/12/27 11:09:23;;;;;;;255.27;120.10;;;;;;;;;;766210;182;919429;-63
2021/12/27 11:11:49;;;;;;;233.90;112.97;;;;;;;;;;766523;182;916596;-62
2021/12/27 11:14:15;;;;;;;205.12;92.97;;;;;;;;;;772478;183;917169;-64
2021/12/27 11:16:41;;;;;;;216.37;106.10;;;;;;;;;;767983;182;914763;-62
2021/12/27 11:19:06;;;;;;;233.60;104.93;;;;;;;;;;767159;182;1013311;-63
2021/12/27 11:21:32;;;;;;;237.97;108.70;;;;;;;;;;772119;182;907899;-61
2021/12/27 11:23:58;;;;;;;229.57;112.23;;;;;;;;;;766115;182;922563;-62
2021/12/27 11:26:24;;;;;;;222.60;109.20;;;;;;;;;;765730;180;912347;-62
2021/12/27 11:28:50;;;;;;;221.73;109.33;;;;;;;;;;770443;182;907473;-62
2021/12/27 11:31:16;;;;;;;238.47;110.30;;;;;;;;;;773202;180;912794;-63
2021/12/27 11:33:48;;;;;;;226.17;112.10;;;;;;;;;;764558;183;906784;-61
2021/12/27 11:36:14;;;;;;;244.30;112.40;;;;;;;;;;766365;182;915481;-63
2021/12/27 11:38:40;;;;;;;240.80;110.50;;;;;;;;;;770673;182;915825;-62
2021/12/27 11:41:06;;;;;;;236.27;111.53;;;;;;;;;;763426;182;917638;-62
2021/12/27 11:43:55;;;;;;;230.67;106.50;;;;;;;;;;768983;182;619010;-63
2021/12/27 11:46:21;;;;;;;225.93;104.33;;;;;;;;;;769487;182;918256;-63
2021/12/27 11:48:48;;;;;;;232.50;107.70;;;;;;;;;;762456;182;920636;-63
2021/12/27 11:51:14;;;;;;;198.83;99.27;;;;;;;;;;767847;183;919649;-63
2021/12/27 11:53:52;;;;;;;287.53;130.47;;;;;;;;;;763767;183;919566;-63
2021/12/27 11:56:15;;;;;;;261.23;121.67;;;;;;;;;;764270;179;951915;-62
2021/12/27 11:58:42;;;;;;;211.47;103.43;;;;;;;;;;770665;182;916573;-62
2021/12/27 12:01:13;;;;;;;217.77;106.00;;;;;;;;;;770035;182;918245;-62
2021/12/27 12:03:40;;;;;;;207.00;104.73;;;;;;;;;;768513;182;918017;-62
2021/12/27 12:06:07;;;;;;;196.93;97.73;;;;;;;;;;767241;182;919464;-64
2021/12/27 12:08:48;;;;;;;201.20;96.33;;;;;;;;;;766043;182;918212;-63
2021/12/27 12:11:13;;;;;;;202.50;100.37;;;;;;;;;;769946;181;920868;-64
2021/12/27 12:13:41;;;;;;;236.25;111.43;;;;;;;;;;764321;182;920491;-63
2021/12/27 12:16:07;;;;;;;223.65;104.63;;;;;;;;;;767317;182;920903;-64
2021/12/27 12:18:32;;;;;;;221.90;101.80;;;;;;;;;;766144;183;918324;-65
2021/12/27 12:20:58;;;;;;;192.57;98.60;;;;;;;;;;772407;183;921559;-64
2021/12/27 12:23:24;;;;;;;215.03;104.30;;;;;;;;;;766173;183;919323;-64
2021/12/27 12:25:50;;;;;;;222.02;102.38;;;;;;;;;;763925;183;919691;-64
2021/12/27 12:28:16;;;;;;;234.87;113.20;;;;;;;;;;771759;182;920138;-62
2021/12/27 12:30:43;;;;;;;257.53;120.40;;;;;;;;;;767428;182;921383;-63
2021/12/27 12:33:11;;;;;;;235.17;112.37;;;;;;;;;;763443;182;1020583;-64
2021/12/27 12:35:40;;;;;;;209.57;102.70;;;;;;;;;;763248;182;919828;-63
2021/12/27 12:38:11;;;;;;;209.23;103.43;;;;;;;;;;770905;182;921382;-61
2021/12/27 12:40:37;;;;;;;221.90;98.47;;;;;;;;;;763098;179;942139;-62
2021/12/27 12:43:03;;;;;;;236.80;110.83;;;;;;;;;;765838;182;922596;-62
2021/12/27 12:45:29;;;;;;;240.67;110.53;;;;;;;;;;764946;182;921055;-63
2021/12/27 12:47:55;;;;;;;218.20;107.00;;;;;;;;;;770534;180;921612;-63
2021/12/27 12:50:21;;;;;;;270.37;120.40;;;;;;;;;;765689;182;917775;-63
2021/12/27 12:52:47;;;;;;;286.10;128.70;;;;;;;;;;765430;183;919996;-63
2021/12/27 12:55:13;;;;;;;260.80;131.50;;;;;;;;;;768723;181;920196;-63
2021/12/27 12:57:39;;;;;;;306.43;135.77;;;;;;;;;;765331;182;918627;-63
2021/12/27 13:00:06;;;;;;;327.60;151.00;;;;;;;;;;765385;182;918282;-64
2021/12/27 13:02:34;;;;;;;288.27;135.87;;;;;;;;;;771197;182;920706;-63
2021/12/27 13:04:59;;;;;;;257.33;121.70;;;;;;;;;;768092;179;918120;-63
2021/12/27 13:07:39;;;;;;;251.53;116.27;;;;;;;;;;761756;183;919141;-62
2021/12/27 13:10:07;;;;;;;306.87;152.60;;;;;;;;;;766893;182;997219;-63
2021/12/27 13:12:33;;;;;;;261.17;130.33;;;;;;;;;;767104;182;915556;-62
2021/12/27 13:14:58;;;;;;;297.53;140.63;;;;;;;;;;772970;182;922983;-63
2021/12/27 13:17:25;;;;;;;283.53;129.17;;;;;;;;;;764093;182;919512;-63
2021/12/27 13:19:57;;;;;;;276.95;128.12;;;;;;;;;;765356;182;919183;-62
2021/12/27 13:22:28;;;;;;;349.53;161.93;;;;;;;;;;767736;182;919206;-66
2021/12/27 13:24:54;;;;;;;306.40;138.10;;;;;;;;;;772025;182;919600;-62
2021/12/27 13:27:25;;;;;;;254.67;120.80;;;;;;;;;;765662;182;919873;-63
2021/12/27 13:29:51;;;;;;;259.77;114.00;;;;;;;;;;764187;183;919236;-63
2021/12/27 13:32:17;;;;;;;232.97;112.60;;;;;;;;;;770920;182;920451;-62
2021/12/27 13:34:43;;;;;;;226.23;108.97;;;;;;;;;;763088;182;919397;-63
2021/12/27 13:37:09;;;;;;;251.43;120.47;;;;;;;;;;763986;181;919013;-63
2021/12/27 13:39:34;;;;;;;219.40;107.07;;;;;;;;;;763253;183;918644;-62
2021/12/27 13:42:04;;;;;;;234.07;107.97;;;;;;;;;;771718;180;929181;-63
2021/12/27 13:44:30;;;;;;;257.77;123.13;;;;;;;;;;761814;183;1018407;-62